Time,TemperatureF,DewpointF,PressureIn,WindDirection,WindDirectionDegrees,WindSpeedMPH,WindSpeedGustMPH,Humidity,HourlyPrecipIn,Conditions,Clouds,dailyrainin,SolarRadiationWatts/m^2,SoftwareType,DateUTC
2013-03-03 00:00:00,25.2,16.8,30.11,NW,314,1.0,3.0,70,0.00,,---,0.00,0.00,VWS V14.00,2013-03-03 05:00:00,
2013-03-03 00:01:00,25.2,16.8,30.11,NW,314,0.0,3.0,70,0.00,,---,0.00,0.00,VWS V14.00,2013-03-03 05:01:00,
2013-03-03 00:06:00,25.1,16.4,30.11,NNW,343,0.0,5.0,69,0.00,,---,0.00,0.00,VWS V14.00,2013-03-03 05:06:00,
2013-03-03 00:11:00,25.1,16.4,30.11,North,355,0.0,3.0,69,0.00,,---,0.00,0.00,VWS V14.00,2013-03-03 05:11:00,
2013-03-03 00:16:00,25.1,16.4,30.11,WNW,299,2.0,6.0,69,0.00,,---,0.00,0.00,VWS V14.00,2013-03-03 05:16:00,
2013-03-03 00:21:00,25.0,16.3,30.11,North,5,3.0,3.0,69,0.00,,---,0.00,0.00,VWS V14.00,2013-03-03 05:21:00,
2013-03-03 00:26:00,25.1,16.7,30.11,NW,325,0.0,2.0,70,0.00,,---,0.00,0.00,VWS V14.00,2013-03-03 05:26:00,
2013-03-03 00:31:00,25.0,16.6,30.11,NNW,331,2.0,5.0,70,0.00,,---,0.00,0.00,VWS V14.00,2013-03-03 05:31:00,
2013-03-03 00:36:00,25.0,16.6,30.11,NW,304,1.0,3.0,70,0.00,,---,0.00,0.00,VWS V14.00,2013-03-03 05:36:00,
2013-03-03 00:41:00,24.9,16.5,30.12,NW,306,0.0,4.0,70,0.00,,---,0.00,0.00,VWS V14.00,2013-03-03 05:41:00,
2013-03-03 00:46:00,24.9,16.5,30.12,WNW,302,3.0,3.0,70,0.00,,---,0.00,0.00,VWS V14.00,2013-03-03 05:46:00,
2013-03-03 00:51:00,24.9,16.5,30.12,NW,309,1.0,5.0,70,0.00,,---,0.00,0.00,VWS V14.00,2013-03-03 05:51:00,
2013-03-03 00:56:00,24.9,16.5,30.12,WNW,297,3.0,5.0,70,0.00,,---,0.00,0.00,VWS V14.00,2013-03-03 05:56:00,
2013-03-03 01:01:00,24.9,16.8,30.12,WNW,286,0.0,2.0,71,0.00,,---,0.00,0.00,VWS V14.00,2013-03-03 06:01:00,
2013-03-03 01:06:00,24.8,16.4,30.12,NW,311,2.0,6.0,70,0.00,,---,0.00,0.00,VWS V14.00,2013-03-03 06:06:00,
2013-03-03 01:11:00,24.8,16.4,30.12,NW,308,0.0,3.0,70,0.00,,---,0.00,0.00,VWS V14.00,2013-03-03 06:11:00,
2013-03-03 01:16:00,24.8,16.8,30.11,NW,308,0.0,2.0,71,0.00,,---,0.00,0.00,VWS V14.00,2013-03-03 06:16:00,
2013-03-03 01:21:00,24.7,16.6,30.11,WNW,296,0.0,1.0,71,0.00,,---,0.00,0.00,VWS V14.00,2013-03-03 06:21:00,
2013-03-03 01:26:00,24.7,17.0,30.11,WNW,296,0.0,0.0,72,0.00,,---,0.00,0.00,VWS V14.00,2013-03-03 06:26:00,
2013-03-03 01:31:00,24.7,17.0,30.11,WNW,296,0.0,2.0,72,0.00,,---,0.00,0.00,VWS V14.00,2013-03-03 06:31:00,
2013-03-03 01:36:00,24.7,17.0,30.11,WNW,296,0.0,3.0,72,0.00,,---,0.00,0.00,VWS V14.00,2013-03-03 06:36:00,
2013-03-03 01:41:00,24.7,17.0,30.11,WNW,296,0.0,1.0,72,0.00,,---,0.00,0.00,VWS V14.00,2013-03-03 06:41:00,
2013-03-03 01:46:00,24.7,17.0,30.11,WNW,298,1.0,5.0,72,0.00,,---,0.00,0.00,VWS V14.00,2013-03-03 06:46:00,
2013-03-03 01:51:00,24.6,16.9,30.11,WNW,301,2.0,2.0,72,0.00,,---,0.00,0.00,VWS V14.00,2013-03-03 06:51:00,
2013-03-03 01:56:00,24.5,17.1,30.11,NNW,340,0.0,3.0,73,0.00,,---,0.00,0.00,VWS V14.00,2013-03-03 06:56:00,
2013-03-03 02:01:00,24.5,17.1,30.11,NW,320,2.0,4.0,73,0.00,,---,0.00,0.00,VWS V14.00,2013-03-03 07:01:00,
2013-03-03 02:06:00,24.4,17.0,30.11,WNW,299,3.0,3.0,73,0.00,,---,0.00,0.00,VWS V14.00,2013-03-03 07:06:00,
2013-03-03 02:19:00,24.4,17.0,30.11,WNW,296,0.0,4.0,73,0.00,,---,0.00,0.00,VWS V14.00,2013-03-03 07:19:00,
2013-03-03 02:24:00,24.2,17.1,30.11,WNW,292,0.0,2.0,74,0.00,,---,0.00,0.00,VWS V14.00,2013-03-03 07:24:00,
2013-03-03 02:29:00,24.2,17.1,30.11,WNW,297,3.0,5.0,74,0.00,,---,0.00,0.00,VWS V14.00,2013-03-03 07:29:00,
2013-03-03 02:34:00,24.2,17.4,30.11,WNW,290,2.0,3.0,75,0.00,,---,0.00,0.00,VWS V14.00,2013-03-03 07:34:00,
2013-03-03 02:35:00,24.1,17.3,30.10,NW,326,0.0,0.0,75,0.00,,---,0.00,0.00,VWS V14.00,2013-03-03 07:35:00,
2013-03-03 02:54:00,24.1,17.3,30.10,NW,326,0.0,0.0,75,0.00,,---,0.00,0.00,VWS V14.00,2013-03-03 07:54:00,
2013-03-03 02:59:00,24.0,17.5,30.10,WNW,297,2.0,3.0,76,0.00,,---,0.00,0.00,VWS V14.00,2013-03-03 07:59:00,
2013-03-03 03:04:00,23.9,17.5,30.10,WNW,284,5.0,5.0,76,0.00,,---,0.00,0.00,VWS V14.00,2013-03-03 08:04:00,
2013-03-03 03:09:00,23.8,17.0,30.09,WNW,292,0.0,6.0,75,0.00,,---,0.00,0.00,VWS V14.00,2013-03-03 08:09:00,
2013-03-03 03:14:00,23.8,17.0,30.09,WNW,295,3.0,5.0,75,0.00,,---,0.00,0.00,VWS V14.00,2013-03-03 08:14:00,
2013-03-03 03:19:00,23.8,17.4,30.09,WNW,292,1.0,2.0,76,0.00,,---,0.00,0.00,VWS V14.00,2013-03-03 08:19:00,
2013-03-03 03:24:00,23.8,17.4,30.09,NNW,329,0.0,3.0,76,0.00,,---,0.00,0.00,VWS V14.00,2013-03-03 08:24:00,
2013-03-03 03:29:00,23.7,17.3,30.09,WNW,302,2.0,5.0,76,0.00,,---,0.00,0.00,VWS V14.00,2013-03-03 08:29:00,
2013-03-03 03:34:00,23.6,16.9,30.09,WNW,296,0.0,5.0,75,0.00,,---,0.00,0.00,VWS V14.00,2013-03-03 08:34:00,
2013-03-03 03:39:00,23.6,16.9,30.09,NW,304,2.0,7.0,75,0.00,,---,0.00,0.00,VWS V14.00,2013-03-03 08:39:00,
2013-03-03 03:44:00,23.6,16.9,30.09,WNW,296,2.0,5.0,75,0.00,,---,0.00,0.00,VWS V14.00,2013-03-03 08:44:00,
2013-03-03 03:49:00,23.6,16.9,30.09,WNW,298,0.0,3.0,75,0.00,,---,0.00,0.00,VWS V14.00,2013-03-03 08:49:00,
2013-03-03 03:54:00,23.6,17.2,30.09,WNW,302,5.0,6.0,76,0.00,,---,0.00,0.00,VWS V14.00,2013-03-03 08:54:00,
2013-03-03 03:59:00,23.5,16.8,30.09,WNW,296,4.0,4.0,75,0.00,,---,0.00,0.00,VWS V14.00,2013-03-03 08:59:00,
2013-03-03 04:04:00,23.5,16.8,30.09,NW,321,1.0,4.0,75,0.00,,---,0.00,0.00,VWS V14.00,2013-03-03 09:04:00,
2013-03-03 04:09:00,23.5,16.8,30.09,WNW,290,0.0,2.0,75,0.00,,---,0.00,0.00,VWS V14.00,2013-03-03 09:09:00,
2013-03-03 04:14:00,23.5,16.8,30.09,NW,305,0.0,2.0,75,0.00,,---,0.00,0.00,VWS V14.00,2013-03-03 09:14:00,
2013-03-03 04:19:00,23.5,16.8,30.09,WNW,298,1.0,5.0,75,0.00,,---,0.00,0.00,VWS V14.00,2013-03-03 09:19:00,
2013-03-03 04:24:00,23.5,16.8,30.08,WNW,300,0.0,3.0,75,0.00,,---,0.00,0.00,VWS V14.00,2013-03-03 09:24:00,
2013-03-03 04:29:00,23.5,16.8,30.08,NW,318,1.0,7.0,75,0.00,,---,0.00,0.00,VWS V14.00,2013-03-03 09:29:00,
2013-03-03 04:34:00,23.5,16.8,30.08,WNW,290,4.0,6.0,75,0.00,,---,0.00,0.00,VWS V14.00,2013-03-03 09:34:00,
2013-03-03 04:39:00,23.5,16.5,30.09,WNW,292,4.0,4.0,74,0.00,,---,0.00,0.00,VWS V14.00,2013-03-03 09:39:00,
2013-03-03 04:44:00,23.6,16.5,30.09,West,279,1.0,3.0,74,0.00,,---,0.00,0.00,VWS V14.00,2013-03-03 09:44:00,
2013-03-03 04:49:00,23.6,16.5,30.09,WNW,283,6.0,6.0,74,0.00,,---,0.00,0.00,VWS V14.00,2013-03-03 09:49:00,
2013-03-03 04:54:00,23.6,16.5,30.09,WNW,297,4.0,5.0,74,0.00,,---,0.00,0.00,VWS V14.00,2013-03-03 09:54:00,
2013-03-03 04:59:00,23.6,16.2,30.09,WNW,287,2.0,2.0,73,0.00,,---,0.00,0.00,VWS V14.00,2013-03-03 09:59:00,
2013-03-03 05:04:00,23.7,16.3,30.09,West,275,0.0,0.0,73,0.00,,---,0.00,0.00,VWS V14.00,2013-03-03 10:04:00,
2013-03-03 05:09:00,23.7,16.3,30.09,WNW,294,2.0,5.0,73,0.00,,---,0.00,0.00,VWS V14.00,2013-03-03 10:09:00,
2013-03-03 05:14:00,23.7,16.3,30.09,West,277,0.0,0.0,73,0.00,,---,0.00,0.00,VWS V14.00,2013-03-03 10:14:00,
2013-03-03 05:19:00,23.8,16.1,30.09,WNW,291,3.0,5.0,72,0.00,,---,0.00,0.00,VWS V14.00,2013-03-03 10:19:00,
2013-03-03 05:24:00,23.8,15.8,30.09,WNW,300,3.0,5.0,71,0.00,,---,0.00,0.00,VWS V14.00,2013-03-03 10:24:00,
2013-03-03 05:29:00,23.8,15.8,30.09,West,281,4.0,5.0,71,0.00,,---,0.00,0.00,VWS V14.00,2013-03-03 10:29:00,
2013-03-03 05:34:00,23.8,15.8,30.09,WNW,297,2.0,7.0,71,0.00,,---,0.00,0.00,VWS V14.00,2013-03-03 10:34:00,
2013-03-03 05:39:00,23.8,15.8,30.09,WNW,283,0.0,4.0,71,0.00,,---,0.00,0.00,VWS V14.00,2013-03-03 10:39:00,
2013-03-03 05:44:00,23.9,15.9,30.09,WNW,294,0.0,1.0,71,0.00,,---,0.00,0.00,VWS V14.00,2013-03-03 10:44:00,
2013-03-03 05:49:00,23.9,16.2,30.09,WNW,291,0.0,2.0,72,0.00,,---,0.00,0.00,VWS V14.00,2013-03-03 10:49:00,
2013-03-03 05:54:00,23.9,16.2,30.10,WNW,298,3.0,4.0,72,0.00,,---,0.00,0.00,VWS V14.00,2013-03-03 10:54:00,
2013-03-03 05:59:00,23.8,16.1,30.09,WNW,302,0.0,3.0,72,0.00,,---,0.00,0.00,VWS V14.00,2013-03-03 10:59:00,
2013-03-03 06:04:00,23.8,16.4,30.09,WNW,294,0.0,2.0,73,0.00,,---,0.00,0.00,VWS V14.00,2013-03-03 11:04:00,
2013-03-03 06:09:00,23.8,16.4,30.09,WNW,298,2.0,5.0,73,0.00,,---,0.00,0.00,VWS V14.00,2013-03-03 11:09:00,
2013-03-03 06:14:00,23.6,16.2,30.09,WNW,298,1.0,2.0,73,0.00,,---,0.00,0.00,VWS V14.00,2013-03-03 11:14:00,
2013-03-03 06:19:00,23.5,16.1,30.09,NW,309,0.0,3.0,73,0.00,,---,0.00,0.00,VWS V14.00,2013-03-03 11:19:00,
2013-03-03 06:24:00,23.5,16.5,30.09,NW,324,3.0,4.0,74,0.00,,---,0.00,0.00,VWS V14.00,2013-03-03 11:24:00,
2013-03-03 06:29:00,23.4,16.4,30.10,NW,319,0.0,3.0,74,0.00,,---,0.00,0.00,VWS V14.00,2013-03-03 11:29:00,
2013-03-03 06:34:00,23.4,16.4,30.10,WNW,303,1.0,5.0,74,0.00,,---,0.00,0.00,VWS V14.00,2013-03-03 11:34:00,
2013-03-03 06:39:00,23.3,16.2,30.10,WNW,296,4.0,4.0,74,0.00,,---,0.00,0.00,VWS V14.00,2013-03-03 11:39:00,
2013-03-03 06:44:00,23.3,16.2,30.10,WNW,285,7.0,7.0,74,0.00,,---,0.00,0.00,VWS V14.00,2013-03-03 11:44:00,
2013-03-03 06:49:00,23.2,16.2,30.10,WNW,296,0.0,3.0,74,0.00,,---,0.00,0.00,VWS V14.00,2013-03-03 11:49:00,
2013-03-03 06:54:00,23.2,16.2,30.10,NW,321,0.0,1.0,74,0.00,,---,0.00,0.00,VWS V14.00,2013-03-03 11:54:00,
2013-03-03 06:59:00,23.2,16.2,30.10,NW,308,4.0,4.0,74,0.00,,---,0.00,0.00,VWS V14.00,2013-03-03 11:59:00,
2013-03-03 07:04:00,23.2,16.2,30.10,WNW,299,4.0,4.0,74,0.00,,---,0.00,0.00,VWS V14.00,2013-03-03 12:04:00,
2013-03-03 07:09:00,23.2,16.2,30.10,WNW,296,0.0,3.0,74,0.00,,---,0.00,0.00,VWS V14.00,2013-03-03 12:09:00,
2013-03-03 07:14:00,23.2,16.2,30.10,West,275,3.0,5.0,74,0.00,,---,0.00,5.00,VWS V14.00,2013-03-03 12:14:00,
2013-03-03 07:19:00,23.2,16.2,30.10,NW,307,2.0,4.0,74,0.00,,---,0.00,7.00,VWS V14.00,2013-03-03 12:19:00,
2013-03-03 07:24:00,23.2,16.5,30.10,NW,308,0.0,0.0,75,0.00,,---,0.00,9.00,VWS V14.00,2013-03-03 12:24:00,
2013-03-03 07:29:00,23.3,16.6,30.10,WNW,298,1.0,2.0,75,0.00,,---,0.00,14.00,VWS V14.00,2013-03-03 12:29:00,
2013-03-03 07:34:00,23.3,16.2,30.10,WNW,295,2.0,4.0,74,0.00,,---,0.00,19.00,VWS V14.00,2013-03-03 12:34:00,
2013-03-03 07:39:00,23.3,16.2,30.10,WNW,290,0.0,1.0,74,0.00,,---,0.00,23.00,VWS V14.00,2013-03-03 12:39:00,
2013-03-03 07:44:00,23.3,16.2,30.10,NW,325,3.0,7.0,74,0.00,,---,0.00,28.00,VWS V14.00,2013-03-03 12:44:00,
2013-03-03 07:49:00,23.3,16.2,30.10,WNW,289,5.0,7.0,74,0.00,,---,0.00,33.00,VWS V14.00,2013-03-03 12:49:00,
2013-03-03 07:54:00,23.3,16.2,30.10,WNW,298,0.0,3.0,74,0.00,,---,0.00,40.00,VWS V14.00,2013-03-03 12:54:00,
2013-03-03 07:59:00,23.3,16.6,30.10,West,271,4.0,6.0,75,0.00,,---,0.00,49.00,VWS V14.00,2013-03-03 12:59:00,
2013-03-03 08:04:00,23.4,16.7,30.10,WNW,300,2.0,7.0,75,0.00,,---,0.00,53.00,VWS V14.00,2013-03-03 13:04:00,
2013-03-03 08:08:00,23.4,16.7,30.11,NW,317,1.0,2.0,75,0.00,,---,0.00,60.00,VWS V14.00,2013-03-03 13:08:00,
2013-03-03 08:13:00,23.4,16.4,30.11,WNW,283,4.0,7.0,74,0.00,,---,0.00,63.00,VWS V14.00,2013-03-03 13:13:00,
2013-03-03 08:18:00,23.5,16.5,30.11,NNW,340,2.0,3.0,74,0.00,,---,0.00,67.00,VWS V14.00,2013-03-03 13:18:00,
2013-03-03 08:23:00,23.6,16.5,30.11,NW,315,1.0,3.0,74,0.00,,---,0.00,76.00,VWS V14.00,2013-03-03 13:23:00,
2013-03-03 08:28:00,23.7,17.0,30.11,WNW,300,1.0,5.0,75,0.00,,---,0.00,81.00,VWS V14.00,2013-03-03 13:28:00,
2013-03-03 08:33:00,23.8,16.7,30.11,WNW,303,1.0,3.0,74,0.00,,---,0.00,86.00,VWS V14.00,2013-03-03 13:33:00,
2013-03-03 08:38:00,23.7,16.6,30.11,NW,305,2.0,4.0,74,0.00,,---,0.00,91.00,VWS V14.00,2013-03-03 13:38:00,
2013-03-03 08:43:00,23.8,16.7,30.11,North,350,4.0,4.0,74,0.00,,---,0.00,98.00,VWS V14.00,2013-03-03 13:43:00,
2013-03-03 08:48:00,23.8,16.7,30.11,North,355,0.0,5.0,74,0.00,,---,0.00,111.00,VWS V14.00,2013-03-03 13:48:00,
2013-03-03 08:53:00,23.8,16.4,30.11,NNW,347,3.0,6.0,73,0.00,,---,0.00,111.00,VWS V14.00,2013-03-03 13:53:00,
2013-03-03 08:58:00,23.8,16.4,30.11,NW,306,5.0,6.0,73,0.00,,---,0.00,127.00,VWS V14.00,2013-03-03 13:58:00,
2013-03-03 09:03:00,23.9,16.5,30.11,North,355,4.0,6.0,73,0.00,,---,0.00,121.00,VWS V14.00,2013-03-03 14:03:00,
2013-03-03 09:08:00,23.8,16.4,30.11,NW,321,2.0,5.0,73,0.00,,---,0.00,125.00,VWS V14.00,2013-03-03 14:08:00,
2013-03-03 09:13:00,23.9,16.5,30.11,NW,312,3.0,4.0,73,0.00,,---,0.00,123.00,VWS V14.00,2013-03-03 14:13:00,
2013-03-03 09:18:00,23.9,16.5,30.11,NNW,342,3.0,6.0,73,0.00,,---,0.00,121.00,VWS V14.00,2013-03-03 14:18:00,
2013-03-03 09:23:00,23.8,16.1,30.11,North,350,4.0,5.0,72,0.00,,---,0.00,116.00,VWS V14.00,2013-03-03 14:23:00,
2013-03-03 09:28:00,23.8,16.1,30.11,North,360,4.0,5.0,72,0.00,,---,0.00,121.00,VWS V14.00,2013-03-03 14:28:00,
2013-03-03 09:33:00,23.9,16.2,30.11,NW,308,6.0,6.0,72,0.00,,---,0.00,118.00,VWS V14.00,2013-03-03 14:33:00,
2013-03-03 09:38:00,24.0,16.6,30.11,NNW,331,5.0,5.0,73,0.00,,---,0.00,134.00,VWS V14.00,2013-03-03 14:38:00,
2013-03-03 09:43:00,23.9,16.2,30.11,North,349,5.0,8.0,72,0.00,,---,0.00,127.00,VWS V14.00,2013-03-03 14:43:00,
2013-03-03 09:48:00,23.8,16.1,30.11,NNW,332,3.0,4.0,72,0.00,,---,0.00,148.00,VWS V14.00,2013-03-03 14:48:00,
2013-03-03 09:53:00,23.9,15.9,30.11,NNW,340,3.0,5.0,71,0.00,,---,0.00,162.00,VWS V14.00,2013-03-03 14:53:00,
2013-03-03 09:58:00,24.1,16.4,30.11,NW,311,2.0,2.0,72,0.00,,---,0.00,165.00,VWS V14.00,2013-03-03 14:58:00,
2013-03-03 10:03:00,24.3,16.3,30.11,NNW,336,0.0,2.0,71,0.00,,---,0.00,185.00,VWS V14.00,2013-03-03 15:03:00,
2013-03-03 10:08:00,24.5,16.5,30.11,North,360,6.0,8.0,71,0.00,,---,0.00,197.00,VWS V14.00,2013-03-03 15:08:00,
2013-03-03 10:13:00,24.4,16.4,30.11,WNW,288,2.0,4.0,71,0.00,,---,0.00,190.00,VWS V14.00,2013-03-03 15:13:00,
2013-03-03 10:18:00,24.5,15.8,30.11,NNW,327,0.0,2.0,69,0.00,,---,0.00,204.00,VWS V14.00,2013-03-03 15:18:00,
2013-03-03 10:23:00,24.6,15.9,30.11,WNW,302,3.0,3.0,69,0.00,,---,0.00,234.00,VWS V14.00,2013-03-03 15:23:00,
2013-03-03 10:28:00,24.6,15.6,30.11,West,279,6.0,6.0,68,0.00,,---,0.00,241.00,VWS V14.00,2013-03-03 15:28:00,
2013-03-03 10:33:00,24.4,14.7,30.11,NW,306,3.0,8.0,66,0.00,,---,0.00,229.00,VWS V14.00,2013-03-03 15:33:00,
2013-03-03 10:38:00,24.5,14.4,30.11,NNW,333,2.0,6.0,65,0.00,,---,0.00,241.00,VWS V14.00,2013-03-03 15:38:00,
2013-03-03 10:43:00,24.5,14.1,30.11,NW,311,2.0,7.0,64,0.00,,---,0.00,239.00,VWS V14.00,2013-03-03 15:43:00,
2013-03-03 10:48:00,24.4,13.6,30.11,NW,307,3.0,6.0,63,0.00,,---,0.00,232.00,VWS V14.00,2013-03-03 15:48:00,
2013-03-03 10:53:00,24.6,14.5,30.11,NW,311,3.0,7.0,65,0.00,,---,0.00,204.00,VWS V14.00,2013-03-03 15:53:00,
2013-03-03 10:58:00,24.7,14.3,30.11,West,279,7.0,10.0,64,0.00,,---,0.00,237.00,VWS V14.00,2013-03-03 15:58:00,
2013-03-03 11:03:00,24.8,14.7,30.11,NW,326,2.0,3.0,65,0.00,,---,0.00,209.00,VWS V14.00,2013-03-03 16:03:00,
2013-03-03 11:08:00,24.8,14.7,30.11,NW,304,4.0,8.0,65,0.00,,---,0.00,244.00,VWS V14.00,2013-03-03 16:08:00,
2013-03-03 11:13:00,24.7,14.6,30.11,NW,315,6.0,6.0,65,0.00,,---,0.00,250.00,VWS V14.00,2013-03-03 16:13:00,
2013-03-03 11:18:00,24.6,14.5,30.11,WNW,283,0.0,4.0,65,0.00,,---,0.00,276.00,VWS V14.00,2013-03-03 16:18:00,
2013-03-03 11:23:00,24.7,14.6,30.11,NNW,330,3.0,4.0,65,0.00,,---,0.00,299.00,VWS V14.00,2013-03-03 16:23:00,
2013-03-03 11:28:00,25.0,14.9,30.11,WNW,298,0.0,1.0,65,0.00,,---,0.00,220.00,VWS V14.00,2013-03-03 16:28:00,
2013-03-03 11:33:00,25.1,15.0,30.11,WNW,294,3.0,5.0,65,0.00,,---,0.00,248.00,VWS V14.00,2013-03-03 16:33:00,
2013-03-03 11:38:00,25.2,15.1,30.11,West,271,4.0,7.0,65,0.00,,---,0.00,237.00,VWS V14.00,2013-03-03 16:38:00,
2013-03-03 11:43:00,24.9,14.5,30.11,NW,309,3.0,3.0,64,0.00,,---,0.00,248.00,VWS V14.00,2013-03-03 16:43:00,
2013-03-03 11:48:00,25.1,14.6,30.11,WNW,292,3.0,5.0,64,0.00,,---,0.00,297.00,VWS V14.00,2013-03-03 16:48:00,
2013-03-03 11:53:00,25.4,15.3,30.11,NW,308,3.0,4.0,65,0.00,,---,0.00,357.00,VWS V14.00,2013-03-03 16:53:00,
2013-03-03 11:58:00,25.3,14.5,30.11,NW,304,5.0,5.0,63,0.00,,---,0.00,299.00,VWS V14.00,2013-03-03 16:58:00,
2013-03-03 12:03:00,25.4,14.9,30.11,WNW,301,3.0,6.0,64,0.00,,---,0.00,322.00,VWS V14.00,2013-03-03 17:03:00,
2013-03-03 12:08:00,25.6,14.8,30.11,NW,317,0.0,2.0,63,0.00,,---,0.00,267.00,VWS V14.00,2013-03-03 17:08:00,
2013-03-03 12:13:00,25.7,14.5,30.11,West,272,4.0,12.0,62,0.00,,---,0.00,283.00,VWS V14.00,2013-03-03 17:13:00,
2013-03-03 12:18:00,25.3,14.5,30.10,West,279,7.0,10.0,63,0.00,,---,0.00,246.00,VWS V14.00,2013-03-03 17:18:00,
2013-03-03 12:23:00,25.2,14.4,30.10,WNW,303,4.0,9.0,63,0.00,,---,0.00,290.00,VWS V14.00,2013-03-03 17:23:00,
2013-03-03 12:28:00,25.2,14.4,30.10,West,263,4.0,4.0,63,0.00,,---,0.00,359.00,VWS V14.00,2013-03-03 17:28:00,
2013-03-03 12:33:00,25.4,14.9,30.10,West,271,4.0,6.0,64,0.00,,---,0.00,292.00,VWS V14.00,2013-03-03 17:33:00,
2013-03-03 12:38:00,25.4,14.6,30.10,NW,316,3.0,8.0,63,0.00,,---,0.00,313.00,VWS V14.00,2013-03-03 17:38:00,
2013-03-03 12:47:00,25.4,14.6,30.10,WNW,292,4.0,10.0,63,0.00,,---,0.00,336.00,VWS V14.00,2013-03-03 17:47:00,
2013-03-03 12:52:00,26.0,15.1,30.09,SW,234,5.0,5.0,63,0.00,,---,0.00,378.00,VWS V14.00,2013-03-03 17:52:00,
2013-03-03 12:57:00,26.0,14.8,30.09,WNW,294,4.0,10.0,62,0.00,,---,0.00,369.00,VWS V14.00,2013-03-03 17:57:00,
2013-03-03 13:02:00,26.0,14.4,30.09,West,280,5.0,6.0,61,0.00,,---,0.00,429.00,VWS V14.00,2013-03-03 18:02:00,
2013-03-03 13:07:00,26.3,15.1,30.09,NW,306,5.0,8.0,62,0.00,,---,0.00,257.00,VWS V14.00,2013-03-03 18:07:00,
2013-03-03 13:12:00,26.1,14.5,30.09,WNW,298,1.0,8.0,61,0.00,,---,0.00,285.00,VWS V14.00,2013-03-03 18:12:00,
2013-03-03 13:17:00,26.1,14.5,30.09,NW,314,2.0,8.0,61,0.00,,---,0.00,315.00,VWS V14.00,2013-03-03 18:17:00,
2013-03-03 13:22:00,26.1,14.5,30.08,NW,316,3.0,7.0,61,0.00,,---,0.00,320.00,VWS V14.00,2013-03-03 18:22:00,
2013-03-03 13:27:00,26.2,14.6,30.08,North,360,4.0,7.0,61,0.00,,---,0.00,302.00,VWS V14.00,2013-03-03 18:27:00,
2013-03-03 13:32:00,26.1,14.5,30.08,WNW,291,2.0,10.0,61,0.00,,---,0.00,304.00,VWS V14.00,2013-03-03 18:32:00,
2013-03-03 13:37:00,26.1,14.9,30.08,NNW,328,4.0,7.0,62,0.00,,---,0.00,330.00,VWS V14.00,2013-03-03 18:37:00,
2013-03-03 13:42:00,26.3,15.1,30.08,NW,304,2.0,5.0,62,0.00,,---,0.00,403.00,VWS V14.00,2013-03-03 18:42:00,
2013-03-03 13:47:00,26.5,14.5,30.08,WNW,285,3.0,6.0,60,0.00,,---,0.00,350.00,VWS V14.00,2013-03-03 18:47:00,
2013-03-03 13:52:00,26.6,15.4,30.08,WNW,300,4.0,7.0,62,0.00,,---,0.00,292.00,VWS V14.00,2013-03-03 18:52:00,
2013-03-03 13:57:00,27.0,15.4,30.08,WNW,290,3.0,5.0,61,0.00,,---,0.00,264.00,VWS V14.00,2013-03-03 18:57:00,
2013-03-03 14:02:00,27.2,15.2,30.08,WSW,251,0.0,4.0,60,0.00,,---,0.00,404.00,VWS V14.00,2013-03-03 19:02:00,
2013-03-03 14:07:00,27.3,14.5,30.07,WNW,296,6.0,7.0,58,0.00,,---,0.00,195.00,VWS V14.00,2013-03-03 19:07:00,
2013-03-03 14:12:00,27.0,13.8,30.07,NW,308,1.0,6.0,57,0.00,,---,0.00,179.00,VWS V14.00,2013-03-03 19:12:00,
2013-03-03 14:17:00,27.0,14.2,30.07,NNW,345,3.0,7.0,58,0.00,,---,0.00,149.00,VWS V14.00,2013-03-03 19:17:00,
2013-03-03 14:22:00,27.1,14.3,30.07,NW,317,3.0,8.0,58,0.00,,---,0.00,230.00,VWS V14.00,2013-03-03 19:22:00,
2013-03-03 14:27:00,28.0,15.5,30.07,NW,315,3.0,5.0,59,0.00,,---,0.00,733.00,VWS V14.00,2013-03-03 19:27:00,
2013-03-03 14:32:00,28.2,14.5,30.07,North,355,1.0,7.0,56,0.00,,---,0.00,281.00,VWS V14.00,2013-03-03 19:32:00,
2013-03-03 14:37:00,28.5,15.6,30.07,WNW,302,2.0,7.0,58,0.00,,---,0.00,721.00,VWS V14.00,2013-03-03 19:37:00,
2013-03-03 14:42:00,28.6,14.1,30.07,SW,235,8.0,9.0,54,0.00,,---,0.00,747.00,VWS V14.00,2013-03-03 19:42:00,
2013-03-03 14:47:00,29.3,15.1,30.07,WNW,303,4.0,7.0,55,0.00,,---,0.00,770.00,VWS V14.00,2013-03-03 19:47:00,
2013-03-03 14:52:00,29.4,14.8,30.07,West,281,7.0,11.0,54,0.00,,---,0.00,708.00,VWS V14.00,2013-03-03 19:52:00,
2013-03-03 14:57:00,28.8,14.7,30.06,North,355,3.0,7.0,55,0.00,,---,0.00,167.00,VWS V14.00,2013-03-03 19:57:00,
2013-03-03 15:02:00,28.5,14.0,30.07,NW,306,3.0,7.0,54,0.00,,---,0.00,151.00,VWS V14.00,2013-03-03 20:02:00,
2013-03-03 15:07:00,28.1,13.6,30.06,NW,321,2.0,4.0,54,0.00,,---,0.00,102.00,VWS V14.00,2013-03-03 20:07:00,
2013-03-03 15:12:00,28.0,13.5,30.06,West,259,3.0,7.0,54,0.00,,---,0.00,107.00,VWS V14.00,2013-03-03 20:12:00,
2013-03-03 15:17:00,28.3,13.8,30.06,WNW,294,2.0,9.0,54,0.00,,---,0.00,515.00,VWS V14.00,2013-03-03 20:17:00,
2013-03-03 15:22:00,28.6,13.6,30.06,WNW,300,0.0,8.0,53,0.00,,---,0.00,176.00,VWS V14.00,2013-03-03 20:22:00,
2013-03-03 15:27:00,28.6,13.6,30.06,WSW,256,3.0,8.0,53,0.00,,---,0.00,517.00,VWS V14.00,2013-03-03 20:27:00,
2013-03-03 15:32:00,28.9,13.9,30.07,NW,308,2.0,9.0,53,0.00,,---,0.00,517.00,VWS V14.00,2013-03-03 20:32:00,
2013-03-03 15:37:00,29.0,13.6,30.06,WNW,298,5.0,11.0,52,0.00,,---,0.00,524.00,VWS V14.00,2013-03-03 20:37:00,
2013-03-03 15:42:00,28.7,12.9,30.07,West,268,3.0,9.0,51,0.00,,---,0.00,111.00,VWS V14.00,2013-03-03 20:42:00,
2013-03-03 15:47:00,28.5,13.1,30.06,WNW,301,6.0,10.0,52,0.00,,---,0.00,457.00,VWS V14.00,2013-03-03 20:47:00,
2013-03-03 15:52:00,28.9,13.9,30.07,WNW,298,1.0,9.0,53,0.00,,---,0.00,97.00,VWS V14.00,2013-03-03 20:52:00,
2013-03-03 15:57:00,28.6,13.2,30.07,NW,320,5.0,8.0,52,0.00,,---,0.00,91.00,VWS V14.00,2013-03-03 20:57:00,
2013-03-03 16:02:00,28.6,13.2,30.06,WNW,292,5.0,9.0,52,0.00,,---,0.00,422.00,VWS V14.00,2013-03-03 21:02:00,
2013-03-03 16:07:00,28.8,13.4,30.07,WNW,297,2.0,7.0,52,0.00,,---,0.00,232.00,VWS V14.00,2013-03-03 21:07:00,
2013-03-03 16:12:00,28.6,13.2,30.06,West,273,0.0,8.0,52,0.00,,---,0.00,100.00,VWS V14.00,2013-03-03 21:12:00,
2013-03-03 16:17:00,29.0,14.0,30.06,North,355,1.0,5.0,53,0.00,,---,0.00,410.00,VWS V14.00,2013-03-03 21:17:00,
2013-03-03 16:22:00,29.2,14.2,30.07,NNW,327,2.0,5.0,53,0.00,,---,0.00,209.00,VWS V14.00,2013-03-03 21:22:00,
2013-03-03 16:27:00,29.7,14.7,30.07,NW,308,5.0,6.0,53,0.00,,---,0.00,399.00,VWS V14.00,2013-03-03 21:27:00,
2013-03-03 16:32:00,29.4,14.4,30.07,NNW,345,2.0,8.0,53,0.00,,---,0.00,79.00,VWS V14.00,2013-03-03 21:32:00,
2013-03-03 16:37:00,29.6,14.1,30.07,North,355,2.0,5.0,52,0.00,,---,0.00,332.00,VWS V14.00,2013-03-03 21:37:00,
2013-03-03 16:42:00,29.8,14.3,30.07,NNW,335,3.0,9.0,52,0.00,,---,0.00,327.00,VWS V14.00,2013-03-03 21:42:00,
2013-03-03 16:47:00,29.9,14.0,30.07,NW,325,4.0,7.0,51,0.00,,---,0.00,294.00,VWS V14.00,2013-03-03 21:47:00,
2013-03-03 16:52:00,29.7,13.4,30.07,NNW,329,4.0,6.0,50,0.00,,---,0.00,67.00,VWS V14.00,2013-03-03 21:52:00,
2013-03-03 16:57:00,29.4,13.5,30.07,NW,315,1.0,7.0,51,0.00,,---,0.00,174.00,VWS V14.00,2013-03-03 21:57:00,
2013-03-03 17:02:00,29.3,13.4,30.07,NW,323,0.0,6.0,51,0.00,,---,0.00,199.00,VWS V14.00,2013-03-03 22:02:00,
2013-03-03 17:07:00,29.6,13.7,30.07,NNW,331,2.0,6.0,51,0.00,,---,0.00,135.00,VWS V14.00,2013-03-03 22:07:00,
2013-03-03 17:12:00,29.7,14.2,30.07,NW,323,1.0,6.0,52,0.00,,---,0.00,97.00,VWS V14.00,2013-03-03 22:12:00,
2013-03-03 17:17:00,29.8,13.9,30.07,West,279,6.0,7.0,51,0.00,,---,0.00,74.00,VWS V14.00,2013-03-03 22:17:00,
2013-03-03 17:22:00,29.6,13.3,30.08,West,272,0.0,8.0,50,0.00,,---,0.00,70.00,VWS V14.00,2013-03-03 22:22:00,
2013-03-03 17:27:00,29.5,14.1,30.08,WSW,257,7.0,7.0,52,0.00,,---,0.00,84.00,VWS V14.00,2013-03-03 22:27:00,
2013-03-03 17:32:00,29.4,13.5,30.08,WNW,285,0.0,6.0,51,0.00,,---,0.00,44.00,VWS V14.00,2013-03-03 22:32:00,
2013-03-03 17:37:00,29.1,13.7,30.08,WNW,296,0.0,5.0,52,0.00,,---,0.00,44.00,VWS V14.00,2013-03-03 22:37:00,
2013-03-03 17:42:00,29.0,13.6,30.08,NW,309,0.0,5.0,52,0.00,,---,0.00,37.00,VWS V14.00,2013-03-03 22:42:00,
2013-03-03 17:47:00,28.8,13.0,30.08,West,260,4.0,9.0,51,0.00,,---,0.00,30.00,VWS V14.00,2013-03-03 22:47:00,
2013-03-03 17:52:00,28.7,13.3,30.08,NW,306,2.0,9.0,52,0.00,,---,0.00,44.00,VWS V14.00,2013-03-03 22:52:00,
2013-03-03 17:57:00,28.7,13.3,30.08,WNW,297,1.0,2.0,52,0.00,,---,0.00,26.00,VWS V14.00,2013-03-03 22:57:00,
2013-03-03 18:02:00,28.7,13.3,30.08,WNW,299,1.0,7.0,52,0.00,,---,0.00,19.00,VWS V14.00,2013-03-03 23:02:00,
2013-03-03 18:07:00,28.7,13.3,30.08,NNW,329,0.0,4.0,52,0.00,,---,0.00,16.00,VWS V14.00,2013-03-03 23:07:00,
2013-03-03 18:12:00,28.5,13.1,30.08,WNW,287,4.0,6.0,52,0.00,,---,0.00,12.00,VWS V14.00,2013-03-03 23:12:00,
2013-03-03 18:17:00,28.5,13.1,30.08,NNW,331,0.0,4.0,52,0.00,,---,0.00,11.00,VWS V14.00,2013-03-03 23:17:00,
2013-03-03 18:22:00,28.5,13.1,30.08,NW,309,0.0,3.0,52,0.00,,---,0.00,7.00,VWS V14.00,2013-03-03 23:22:00,
2013-03-03 18:27:00,28.4,13.5,30.08,NW,305,0.0,1.0,53,0.00,,---,0.00,5.00,VWS V14.00,2013-03-03 23:27:00,
2013-03-03 18:32:00,28.3,12.9,30.09,NW,310,2.0,3.0,52,0.00,,---,0.00,0.00,VWS V14.00,2013-03-03 23:32:00,
2013-03-03 18:37:00,28.2,12.9,30.09,NW,321,0.0,2.0,52,0.00,,---,0.00,0.00,VWS V14.00,2013-03-03 23:37:00,
2013-03-03 18:42:00,28.1,12.8,30.09,NW,308,3.0,6.0,52,0.00,,---,0.00,0.00,VWS V14.00,2013-03-03 23:42:00,
2013-03-03 18:47:00,28.1,12.3,30.09,WNW,302,2.0,4.0,51,0.00,,---,0.00,0.00,VWS V14.00,2013-03-03 23:47:00,
2013-03-03 18:52:00,28.1,12.3,30.09,WNW,296,0.0,5.0,51,0.00,,---,0.00,0.00,VWS V14.00,2013-03-03 23:52:00,
2013-03-03 18:57:00,28.1,12.8,30.09,WNW,284,1.0,4.0,52,0.00,,---,0.00,0.00,VWS V14.00,2013-03-03 23:57:00,
2013-03-03 19:02:00,28.0,12.7,30.09,WNW,294,0.0,3.0,52,0.00,,---,0.00,0.00,VWS V14.00,2013-03-04 00:02:00,
2013-03-03 19:07:00,27.8,12.5,30.09,WNW,294,0.0,0.0,52,0.00,,---,0.00,0.00,VWS V14.00,2013-03-04 00:07:00,
2013-03-03 19:12:00,27.6,12.7,30.10,WNW,294,0.0,0.0,53,0.00,,---,0.00,0.00,VWS V14.00,2013-03-04 00:12:00,
2013-03-03 19:17:00,27.4,13.0,30.10,WNW,294,0.0,0.0,54,0.00,,---,0.00,0.00,VWS V14.00,2013-03-04 00:17:00,
2013-03-03 19:22:00,27.2,12.8,30.10,WNW,294,0.0,0.0,54,0.00,,---,0.00,0.00,VWS V14.00,2013-03-04 00:22:00,
2013-03-03 19:27:00,27.1,12.7,30.10,WNW,294,0.0,0.0,54,0.00,,---,0.00,0.00,VWS V14.00,2013-03-04 00:27:00,
2013-03-03 19:32:00,27.0,13.0,30.10,WNW,294,0.0,0.0,55,0.00,,---,0.00,0.00,VWS V14.00,2013-03-04 00:32:00,
2013-03-03 19:37:00,26.8,12.8,30.10,WNW,294,0.0,0.0,55,0.00,,---,0.00,0.00,VWS V14.00,2013-03-04 00:37:00,
2013-03-03 19:42:00,26.6,12.6,30.10,WNW,294,0.0,0.0,55,0.00,,---,0.00,0.00,VWS V14.00,2013-03-04 00:42:00,
2013-03-03 19:47:00,26.5,12.5,30.11,WNW,294,0.0,0.0,55,0.00,,---,0.00,0.00,VWS V14.00,2013-03-04 00:47:00,
2013-03-03 19:52:00,26.4,12.4,30.11,WNW,294,0.0,0.0,55,0.00,,---,0.00,0.00,VWS V14.00,2013-03-04 00:52:00,
2013-03-03 19:57:00,26.3,12.3,30.11,WNW,294,0.0,0.0,55,0.00,,---,0.00,0.00,VWS V14.00,2013-03-04 00:57:00,
2013-03-03 20:02:00,26.2,12.2,30.11,WNW,294,0.0,0.0,55,0.00,,---,0.00,0.00,VWS V14.00,2013-03-04 01:02:00,
2013-03-03 20:07:00,26.1,12.6,30.11,WNW,294,0.0,0.0,56,0.00,,---,0.00,0.00,VWS V14.00,2013-03-04 01:07:00,
2013-03-03 20:12:00,26.1,12.6,30.11,WNW,294,0.0,0.0,56,0.00,,---,0.00,0.00,VWS V14.00,2013-03-04 01:12:00,
2013-03-03 20:17:00,26.0,12.5,30.11,WNW,294,0.0,0.0,56,0.00,,---,0.00,0.00,VWS V14.00,2013-03-04 01:17:00,
2013-03-03 20:22:00,25.9,12.4,30.11,WNW,294,0.0,0.0,56,0.00,,---,0.00,0.00,VWS V14.00,2013-03-04 01:22:00,
2013-03-03 20:27:00,25.8,12.3,30.11,WNW,294,0.0,0.0,56,0.00,,---,0.00,0.00,VWS V14.00,2013-03-04 01:27:00,
2013-03-03 20:32:00,25.7,12.6,30.11,WNW,294,0.0,0.0,57,0.00,,---,0.00,0.00,VWS V14.00,2013-03-04 01:32:00,
2013-03-03 20:37:00,25.6,12.9,30.11,WNW,294,0.0,0.0,58,0.00,,---,0.00,0.00,VWS V14.00,2013-03-04 01:37:00,
2013-03-03 20:42:00,25.7,12.6,30.11,WNW,294,0.0,0.0,57,0.00,,---,0.00,0.00,VWS V14.00,2013-03-04 01:42:00,
2013-03-03 20:47:00,25.8,12.7,30.11,WNW,294,0.0,0.0,57,0.00,,---,0.00,0.00,VWS V14.00,2013-03-04 01:47:00,
2013-03-03 20:52:00,25.8,12.7,30.11,WNW,294,0.0,0.0,57,0.00,,---,0.00,0.00,VWS V14.00,2013-03-04 01:52:00,
2013-03-03 20:57:00,25.9,12.8,30.12,WNW,294,0.0,1.0,57,0.00,,---,0.00,0.00,VWS V14.00,2013-03-04 01:57:00,
2013-03-03 21:02:00,25.9,12.4,30.11,WNW,294,0.0,0.0,56,0.00,,---,0.00,0.00,VWS V14.00,2013-03-04 02:02:00,
2013-03-03 21:07:00,25.8,12.7,30.12,WNW,294,0.0,0.0,57,0.00,,---,0.00,0.00,VWS V14.00,2013-03-04 02:07:00,
2013-03-03 21:12:00,25.7,12.6,30.12,WNW,294,0.0,0.0,57,0.00,,---,0.00,0.00,VWS V14.00,2013-03-04 02:12:00,
2013-03-03 21:17:00,25.7,12.6,30.12,WNW,294,0.0,0.0,57,0.00,,---,0.00,0.00,VWS V14.00,2013-03-04 02:17:00,
2013-03-03 21:22:00,25.6,12.9,30.12,WNW,294,0.0,0.0,58,0.00,,---,0.00,0.00,VWS V14.00,2013-03-04 02:22:00,
2013-03-03 21:27:00,25.7,12.6,30.12,WNW,294,0.0,0.0,57,0.00,,---,0.00,0.00,VWS V14.00,2013-03-04 02:27:00,
2013-03-03 21:32:00,25.6,12.5,30.12,WNW,294,0.0,0.0,57,0.00,,---,0.00,0.00,VWS V14.00,2013-03-04 02:32:00,
2013-03-03 21:37:00,25.4,12.7,30.12,WNW,294,0.0,0.0,58,0.00,,---,0.00,0.00,VWS V14.00,2013-03-04 02:37:00,
2013-03-03 21:42:00,25.2,12.5,30.12,WNW,294,0.0,0.0,58,0.00,,---,0.00,0.00,VWS V14.00,2013-03-04 02:42:00,
2013-03-03 21:47:00,24.9,12.6,30.12,WNW,294,0.0,0.0,59,0.00,,---,0.00,0.00,VWS V14.00,2013-03-04 02:47:00,
2013-03-03 21:52:00,24.6,13.1,30.12,WNW,294,0.0,0.0,61,0.00,,---,0.00,0.00,VWS V14.00,2013-03-04 02:52:00,
2013-03-03 21:57:00,24.2,13.4,30.12,WNW,294,0.0,0.0,63,0.00,,---,0.00,0.00,VWS V14.00,2013-03-04 02:57:00,
2013-03-03 22:02:00,23.8,13.8,30.12,WNW,294,0.0,0.0,65,0.00,,---,0.00,0.00,VWS V14.00,2013-03-04 03:02:00,
2013-03-03 22:07:00,23.3,13.3,30.12,WNW,294,0.0,0.0,65,0.00,,---,0.00,0.00,VWS V14.00,2013-03-04 03:07:00,
2013-03-03 22:12:00,22.9,13.3,30.12,WNW,294,0.0,0.0,66,0.00,,---,0.00,0.00,VWS V14.00,2013-03-04 03:12:00,
2013-03-03 22:17:00,22.7,13.7,30.12,WNW,294,0.0,0.0,68,0.00,,---,0.00,0.00,VWS V14.00,2013-03-04 03:17:00,
2013-03-03 22:22:00,22.6,14.3,30.12,WNW,294,0.0,0.0,70,0.00,,---,0.00,0.00,VWS V14.00,2013-03-04 03:22:00,
2013-03-03 22:27:00,22.5,14.9,30.11,WNW,294,0.0,0.0,72,0.00,,---,0.00,0.00,VWS V14.00,2013-03-04 03:27:00,
2013-03-03 22:32:00,22.5,14.9,30.12,WNW,294,0.0,0.0,72,0.00,,---,0.00,0.00,VWS V14.00,2013-03-04 03:32:00,
2013-03-03 22:37:00,22.4,14.8,30.11,WNW,294,0.0,0.0,72,0.00,,---,0.00,0.00,VWS V14.00,2013-03-04 03:37:00,
2013-03-03 22:42:00,22.4,15.1,30.11,WNW,294,0.0,0.0,73,0.00,,---,0.00,0.00,VWS V14.00,2013-03-04 03:42:00,
2013-03-03 22:47:00,22.3,15.0,30.11,WNW,294,0.0,0.0,73,0.00,,---,0.00,0.00,VWS V14.00,2013-03-04 03:47:00,
2013-03-03 22:52:00,22.2,15.2,30.11,WNW,294,0.0,0.0,74,0.00,,---,0.00,0.00,VWS V14.00,2013-03-04 03:52:00,
2013-03-03 22:57:00,22.0,15.0,30.11,WNW,294,0.0,0.0,74,0.00,,---,0.00,0.00,VWS V14.00,2013-03-04 03:57:00,
2013-03-03 23:02:00,22.0,15.6,30.11,WNW,294,0.0,0.0,76,0.00,,---,0.00,0.00,VWS V14.00,2013-03-04 04:02:00,
2013-03-03 23:07:00,21.8,15.4,30.11,WNW,294,0.0,0.0,76,0.00,,---,0.00,0.00,VWS V14.00,2013-03-04 04:07:00,
2013-03-03 23:12:00,21.7,15.3,30.11,WNW,294,0.0,0.0,76,0.00,,---,0.00,0.00,VWS V14.00,2013-03-04 04:12:00,
2013-03-03 23:17:00,21.5,15.4,30.11,WNW,294,0.0,0.0,77,0.00,,---,0.00,0.00,VWS V14.00,2013-03-04 04:17:00,
2013-03-03 23:22:00,21.4,15.3,30.11,WNW,294,0.0,0.0,77,0.00,,---,0.00,0.00,VWS V14.00,2013-03-04 04:22:00,
2013-03-03 23:27:00,21.2,15.1,30.11,WNW,294,0.0,0.0,77,0.00,,---,0.00,0.00,VWS V14.00,2013-03-04 04:27:00,
2013-03-03 23:32:00,21.0,14.9,30.11,WNW,294,0.0,0.0,77,0.00,,---,0.00,0.00,VWS V14.00,2013-03-04 04:32:00,
2013-03-03 23:37:00,20.9,15.1,30.11,WNW,294,0.0,0.0,78,0.00,,---,0.00,0.00,VWS V14.00,2013-03-04 04:37:00,
2013-03-03 23:42:00,21.0,15.5,30.11,WNW,294,0.0,0.0,79,0.00,,---,0.00,0.00,VWS V14.00,2013-03-04 04:42:00,
2013-03-03 23:47:00,21.2,15.7,30.11,WNW,294,0.0,0.0,79,0.00,,---,0.00,0.00,VWS V14.00,2013-03-04 04:47:00,
2013-03-03 23:52:00,21.5,16.0,30.12,WNW,294,0.0,0.0,79,0.00,,---,0.00,0.00,VWS V14.00,2013-03-04 04:52:00,
2013-03-03 23:57:00,21.4,15.6,30.12,WNW,294,0.0,0.0,78,0.00,,---,0.00,0.00,VWS V14.00,2013-03-04 04:57:00,